createdAt,value
2019-01-27T00:01:04.093Z,18.52
2019-01-27T00:02:13.018Z,18.54
2019-01-27T00:03:21.843Z,18.55
2019-01-27T00:04:30.670Z,18.57
2019-01-27T00:05:39.746Z,18.51
2019-01-27T00:06:48.833Z,18.52
2019-01-27T00:07:58.007Z,18.55
2019-01-27T00:09:07.111Z,18.51
2019-01-27T00:10:16.209Z,18.55
2019-01-27T00:11:25.297Z,18.51
2019-01-27T00:12:34.396Z,18.52
2019-01-27T00:13:43.767Z,18.57
2019-01-27T00:14:53.125Z,18.52
2019-01-27T00:16:01.940Z,18.5
2019-01-27T00:17:11.018Z,18.52
2019-01-27T00:18:19.826Z,18.5
2019-01-27T00:19:28.679Z,18.48
2019-01-27T00:20:37.755Z,18.51
2019-01-27T00:21:46.861Z,18.55
2019-01-27T00:22:56.209Z,18.51
2019-01-27T00:24:05.304Z,18.51
2019-01-27T00:25:14.486Z,18.54
2019-01-27T00:26:23.586Z,18.5
2019-01-27T00:27:32.430Z,18.6
2019-01-27T00:28:41.246Z,18.55
2019-01-27T00:29:50.101Z,18.51
2019-01-27T00:30:59.237Z,18.62
2019-01-27T00:32:08.345Z,18.42
2019-01-27T00:33:17.405Z,18.5
2019-01-27T00:34:26.484Z,18.65
2019-01-27T00:35:35.601Z,18.58
2019-01-27T00:36:44.511Z,18.51
2019-01-27T00:37:53.328Z,18.52
2019-01-27T00:39:02.405Z,18.48
2019-01-27T00:40:11.482Z,18.52
2019-01-27T00:41:20.837Z,18.52
2019-01-27T00:42:29.989Z,18.42
2019-01-27T00:43:38.789Z,18.44
2019-01-27T00:44:47.614Z,18.41
2019-01-27T00:45:56.985Z,18.5
2019-01-27T00:47:06.065Z,18.54
2019-01-27T00:48:15.141Z,18.51
2019-01-27T00:49:23.944Z,18.45
2019-01-27T00:50:32.787Z,18.48
2019-01-27T00:51:41.605Z,18.41
2019-01-27T00:52:50.672Z,18.51
2019-01-27T00:53:59.482Z,18.45
2019-01-27T00:55:08.286Z,18.51
2019-01-27T00:56:17.118Z,18.5
2019-01-27T00:57:26.184Z,18.51
2019-01-27T00:58:35.277Z,18.52
2019-01-27T00:59:44.366Z,18.5
2019-01-27T01:00:53.454Z,18.42
2019-01-27T01:02:02.557Z,18.48
2019-01-27T01:03:11.909Z,18.54
2019-01-27T01:04:20.739Z,18.45
2019-01-27T01:05:29.940Z,18.48
2019-01-27T01:06:39.542Z,18.52
2019-01-27T01:07:49.737Z,18.42
2019-01-27T01:08:59.085Z,18.47
2019-01-27T01:10:07.898Z,18.44
2019-01-27T01:11:17.329Z,18.54
2019-01-27T01:12:26.458Z,18.42
2019-01-27T01:13:35.525Z,18.44
2019-01-27T01:14:44.341Z,18.54
2019-01-27T01:15:53.704Z,18.39
2019-01-27T01:17:02.533Z,18.48
2019-01-27T01:18:11.592Z,18.5
2019-01-27T01:19:20.422Z,18.48
2019-01-27T01:20:29.502Z,18.47
2019-01-27T01:21:38.333Z,18.45
2019-01-27T01:22:47.512Z,18.51
2019-01-27T01:23:56.589Z,18.45
2019-01-27T01:25:05.678Z,18.51
2019-01-27T01:26:14.765Z,18.47
2019-01-27T01:27:23.892Z,18.57
2019-01-27T01:28:33.062Z,18.45
2019-01-27T01:29:42.421Z,18.5
2019-01-27T01:30:51.241Z,18.48
2019-01-27T01:32:00.089Z,18.44
2019-01-27T01:33:09.171Z,18.48
2019-01-27T01:34:18.355Z,18.42
2019-01-27T01:35:27.704Z,18.44
2019-01-27T01:36:36.812Z,18.5
2019-01-27T01:37:45.905Z,18.41
2019-01-27T01:38:54.726Z,18.44
2019-01-27T01:40:04.328Z,18.5
2019-01-27T01:41:13.168Z,18.48
2019-01-27T01:42:21.992Z,18.44
2019-01-27T01:43:30.802Z,18.52
2019-01-27T01:44:39.633Z,18.51
2019-01-27T01:45:48.555Z,18.5
2019-01-27T01:46:57.619Z,18.42
2019-01-27T01:48:06.412Z,18.47
2019-01-27T01:49:15.763Z,18.42
2019-01-27T01:50:25.111Z,18.5
2019-01-27T01:51:34.232Z,18.44
2019-01-27T01:52:43.308Z,18.44
2019-01-27T01:53:52.130Z,18.44
2019-01-27T01:55:00.939Z,18.41
2019-01-27T01:56:09.756Z,18.51
2019-01-27T01:57:18.933Z,18.45
2019-01-27T01:58:27.747Z,18.41
2019-01-27T01:59:36.557Z,18.35
2019-01-27T02:00:45.377Z,18.37
2019-01-27T02:01:54.470Z,18.42
2019-01-27T02:03:03.693Z,18.41
2019-01-27T02:04:28.147Z,18.39
2019-01-27T02:05:37.235Z,18.47
2019-01-27T02:06:46.307Z,18.39
2019-01-27T02:07:55.405Z,18.47
2019-01-27T02:09:04.759Z,18.39
2019-01-27T02:10:13.567Z,18.37
2019-01-27T02:11:22.650Z,18.39
2019-01-27T02:12:31.488Z,18.41
2019-01-27T02:13:40.596Z,18.39
2019-01-27T02:14:49.425Z,18.37
2019-01-27T02:15:59.025Z,18.42
2019-01-27T02:17:08.111Z,18.39
2019-01-27T02:18:17.277Z,18.35
2019-01-27T02:19:26.192Z,18.39
2019-01-27T02:20:35.262Z,18.41
2019-01-27T02:21:44.340Z,18.39
2019-01-27T02:22:53.964Z,18.39
2019-01-27T02:24:02.814Z,18.44
2019-01-27T02:25:12.166Z,18.36
2019-01-27T02:26:21.271Z,18.3
2019-01-27T02:27:30.631Z,18.41
2019-01-27T02:28:39.720Z,18.35
2019-01-27T02:29:48.820Z,18.41
2019-01-27T02:30:58.008Z,18.33
2019-01-27T02:32:07.101Z,18.37
2019-01-27T02:33:15.953Z,18.37
2019-01-27T02:34:25.364Z,18.36
2019-01-27T02:35:34.471Z,18.32
2019-01-27T02:36:43.413Z,18.39
2019-01-27T02:37:52.497Z,18.39
2019-01-27T02:39:01.324Z,18.37
2019-01-27T02:40:10.141Z,18.37
2019-01-27T02:41:19.252Z,18.36
2019-01-27T02:42:28.332Z,18.33
2019-01-27T02:43:37.176Z,18.36
2019-01-27T02:44:46.001Z,18.35
2019-01-27T02:45:54.829Z,18.36
2019-01-27T02:47:03.903Z,18.29
2019-01-27T02:48:13.130Z,18.37
2019-01-27T02:49:22.235Z,18.41
2019-01-27T02:50:31.337Z,18.36
2019-01-27T02:51:40.185Z,18.39
2019-01-27T02:52:49.003Z,18.36
2019-01-27T02:53:58.234Z,18.39
2019-01-27T02:55:07.326Z,18.39
2019-01-27T02:56:16.688Z,18.35
2019-01-27T02:57:26.038Z,18.35
2019-01-27T02:58:34.858Z,18.35
2019-01-27T02:59:43.766Z,18.33
2019-01-27T03:00:52.576Z,18.39
2019-01-27T03:02:01.412Z,18.37
2019-01-27T03:03:11.047Z,18.39
2019-01-27T03:04:20.367Z,18.3
2019-01-27T03:05:29.876Z,18.35
2019-01-27T03:06:38.703Z,18.37
2019-01-27T03:07:47.790Z,18.39
2019-01-27T03:08:56.648Z,18.32
2019-01-27T03:10:05.456Z,18.35
2019-01-27T03:11:14.258Z,18.29
2019-01-27T03:12:23.593Z,18.35
2019-01-27T03:13:32.666Z,18.35
2019-01-27T03:14:41.478Z,18.35
2019-01-27T03:15:50.307Z,18.3
2019-01-27T03:16:59.708Z,18.41
2019-01-27T03:18:09.072Z,18.39
2019-01-27T03:19:18.190Z,18.35
2019-01-27T03:20:27.064Z,18.35
2019-01-27T03:21:36.668Z,18.37
2019-01-27T03:22:45.887Z,18.33
2019-01-27T03:23:54.743Z,18.32
2019-01-27T03:25:04.098Z,18.29
2019-01-27T03:26:13.429Z,18.29
2019-01-27T03:27:22.861Z,18.26
2019-01-27T03:28:32.550Z,18.32
2019-01-27T03:29:41.646Z,18.32
2019-01-27T03:30:51.015Z,18.3
2019-01-27T03:32:00.717Z,18.32
2019-01-27T03:33:10.239Z,18.32
2019-01-27T03:34:19.121Z,18.37
2019-01-27T03:35:28.498Z,18.3
2019-01-27T03:36:37.301Z,18.33
2019-01-27T03:37:46.133Z,18.26
2019-01-27T03:38:55.222Z,18.32
2019-01-27T03:40:04.316Z,18.33
2019-01-27T03:41:13.721Z,18.32
2019-01-27T03:42:23.055Z,18.32
2019-01-27T03:43:32.424Z,18.26
2019-01-27T03:44:41.778Z,18.3
2019-01-27T03:45:50.615Z,18.32
2019-01-27T03:46:59.682Z,18.41
2019-01-27T03:48:09.040Z,18.32
2019-01-27T03:49:18.138Z,18.33
2019-01-27T03:50:27.510Z,18.32
2019-01-27T03:51:36.678Z,18.32
2019-01-27T03:52:46.031Z,18.32
2019-01-27T03:53:55.094Z,18.26
2019-01-27T03:55:04.191Z,18.26
2019-01-27T03:56:13.297Z,18.32
2019-01-27T03:57:22.214Z,18.27
2019-01-27T03:58:31.317Z,18.33
2019-01-27T03:59:40.660Z,18.35
2019-01-27T04:00:49.775Z,18.3
2019-01-27T04:01:58.595Z,18.23
2019-01-27T04:03:07.676Z,18.35
2019-01-27T04:04:16.514Z,18.35
2019-01-27T04:05:25.605Z,18.25
2019-01-27T04:06:34.419Z,18.21
2019-01-27T04:07:43.232Z,18.32
2019-01-27T04:08:52.333Z,18.17
2019-01-27T04:10:01.696Z,18.35
2019-01-27T04:11:11.338Z,18.26
2019-01-27T04:12:20.155Z,18.2
2019-01-27T04:13:29.248Z,18.23
2019-01-27T04:14:38.706Z,18.21
2019-01-27T04:15:48.076Z,18.18
2019-01-27T04:16:57.189Z,18.18
2019-01-27T04:18:06.281Z,18.25
2019-01-27T04:19:15.407Z,18.2
2019-01-27T04:20:24.854Z,18.18
2019-01-27T04:21:33.665Z,18.23
2019-01-27T04:22:42.506Z,18.21
2019-01-27T04:23:52.108Z,18.2
2019-01-27T04:25:01.187Z,18.23
2019-01-27T04:26:10.535Z,18.23
2019-01-27T04:27:19.377Z,18.2
2019-01-27T04:28:28.511Z,18.23
2019-01-27T04:29:37.846Z,18.18
2019-01-27T04:30:46.922Z,18.21
2019-01-27T04:31:56.352Z,18.2
2019-01-27T04:33:05.464Z,18.21
2019-01-27T04:34:14.542Z,18.18
2019-01-27T04:35:23.934Z,18.23
2019-01-27T04:36:32.749Z,18.26
2019-01-27T04:37:41.594Z,18.23
2019-01-27T04:38:51.228Z,18.25
2019-01-27T04:40:00.582Z,18.21
2019-01-27T04:41:09.951Z,18.27
2019-01-27T04:42:19.291Z,18.18
2019-01-27T04:43:28.408Z,18.25
2019-01-27T04:44:37.508Z,18.18
2019-01-27T04:45:46.609Z,18.21
2019-01-27T04:46:55.996Z,18.23
2019-01-27T04:48:05.354Z,18.18
2019-01-27T04:49:15.042Z,18.18
2019-01-27T04:50:24.112Z,18.2
2019-01-27T04:51:33.184Z,18.23
2019-01-27T04:52:41.995Z,18.2
2019-01-27T04:53:51.098Z,18.25
2019-01-27T04:55:00.223Z,18.23
2019-01-27T04:56:09.044Z,18.23
2019-01-27T04:57:18.144Z,18.25
2019-01-27T04:58:27.518Z,18.25
2019-01-27T04:59:36.621Z,18.17
2019-01-27T05:00:45.461Z,18.18
2019-01-27T05:01:54.297Z,18.18
2019-01-27T05:03:03.371Z,18.2
2019-01-27T05:04:12.479Z,18.25
2019-01-27T05:05:23.126Z,18.2
2019-01-27T05:06:32.298Z,18.18
2019-01-27T05:07:41.378Z,18.15
2019-01-27T05:08:50.214Z,18.17
2019-01-27T05:09:59.544Z,18.21
2019-01-27T05:11:08.372Z,18.2
2019-01-27T05:12:17.851Z,18.25
2019-01-27T05:13:26.967Z,18.2
2019-01-27T05:14:36.064Z,18.2
2019-01-27T05:15:45.181Z,18.15
2019-01-27T05:16:54.517Z,18.23
2019-01-27T05:18:03.677Z,18.17
2019-01-27T05:19:12.501Z,18.18
2019-01-27T05:20:21.609Z,18.2
2019-01-27T05:21:30.969Z,18.2
2019-01-27T05:22:41.185Z,18.11
2019-01-27T05:23:50.087Z,18.15
2019-01-27T05:24:58.938Z,18.14
2019-01-27T05:26:08.004Z,18.18
2019-01-27T05:27:16.823Z,18.21
2019-01-27T05:28:25.670Z,18.23
2019-01-27T05:29:34.856Z,18.14
2019-01-27T05:30:43.934Z,18.15
2019-01-27T05:31:53.007Z,18.2
2019-01-27T05:33:01.849Z,18.18
2019-01-27T05:34:10.944Z,18.2
2019-01-27T05:35:20.025Z,18.18
2019-01-27T05:36:29.361Z,18.14
2019-01-27T05:37:38.178Z,18.14
2019-01-27T05:38:47.820Z,18.17
2019-01-27T05:39:56.877Z,18.08
2019-01-27T05:41:05.795Z,18.15
2019-01-27T05:42:14.602Z,18.2
2019-01-27T05:43:23.981Z,18.12
2019-01-27T05:44:33.064Z,18.12
2019-01-27T05:45:41.871Z,18.08
2019-01-27T05:46:50.727Z,18.11
2019-01-27T05:47:59.806Z,18.07
2019-01-27T05:49:09.171Z,18.12
2019-01-27T05:50:18.004Z,18.14
2019-01-27T05:51:27.121Z,18.15
2019-01-27T05:52:36.042Z,18.2
2019-01-27T05:53:45.134Z,18.07
2019-01-27T05:54:53.952Z,18.2
2019-01-27T05:56:03.306Z,18.12
2019-01-27T05:57:12.134Z,18.14
2019-01-27T05:58:21.597Z,18.08
2019-01-27T05:59:31.208Z,18.11
2019-01-27T06:00:40.007Z,18.11
2019-01-27T06:01:49.367Z,18.11
2019-01-27T06:02:58.485Z,18.05
2019-01-27T06:04:08.145Z,18.1
2019-01-27T06:05:17.500Z,18.17
2019-01-27T06:06:26.855Z,18.1
2019-01-27T06:07:36.204Z,18.1
2019-01-27T06:08:45.022Z,18.14
2019-01-27T06:09:54.455Z,18.08
2019-01-27T06:11:03.826Z,18.11
2019-01-27T06:12:12.916Z,18.12
2019-01-27T06:13:22.006Z,18.08
2019-01-27T06:14:32.394Z,18.1
2019-01-27T06:15:41.314Z,18.15
2019-01-27T06:16:50.390Z,18.12
2019-01-27T06:17:59.471Z,18.11
2019-01-27T06:19:08.557Z,18.17
2019-01-27T06:20:17.638Z,18.02
2019-01-27T06:21:27.278Z,18.1
2019-01-27T06:22:36.367Z,18.1
2019-01-27T06:23:45.482Z,18.08
2019-01-27T06:24:54.316Z,18.08
2019-01-27T06:26:03.438Z,18.03
2019-01-27T06:27:12.899Z,18.08
2019-01-27T06:28:22.577Z,18.1
2019-01-27T06:29:31.667Z,18.11
2019-01-27T06:30:41.020Z,18.03
2019-01-27T06:31:50.118Z,18.08
2019-01-27T06:32:59.242Z,18.05
2019-01-27T06:34:08.608Z,18.12
2019-01-27T06:35:17.684Z,18.07
2019-01-27T06:36:26.503Z,18.07
2019-01-27T06:37:35.609Z,18.14
2019-01-27T06:38:45.263Z,18.1
2019-01-27T06:39:54.084Z,18.08
2019-01-27T06:41:03.432Z,18.1
2019-01-27T06:42:12.263Z,18.05
2019-01-27T06:43:21.081Z,18.1
2019-01-27T06:44:30.203Z,18.11
2019-01-27T06:45:39.036Z,18.08
2019-01-27T06:46:47.840Z,18.05
2019-01-27T06:47:57.212Z,18.08
2019-01-27T06:49:06.326Z,18.08
2019-01-27T06:50:15.194Z,18
2019-01-27T06:51:24.005Z,18.08
2019-01-27T06:52:33.087Z,18.03
2019-01-27T06:53:42.172Z,18.08
2019-01-27T06:54:50.992Z,18.08
2019-01-27T06:55:59.815Z,18.08
2019-01-27T06:57:09.193Z,18.08
2019-01-27T06:58:18.019Z,18.05
2019-01-27T06:59:26.835Z,18.08
2019-01-27T07:00:35.659Z,18.08
2019-01-27T07:01:44.761Z,18.08
2019-01-27T07:02:53.852Z,18.03
2019-01-27T07:04:03.203Z,18.03
2019-01-27T07:05:12.305Z,18.08
2019-01-27T07:06:21.119Z,18.02
2019-01-27T07:07:30.578Z,18.05
2019-01-27T07:08:39.663Z,18.02
2019-01-27T07:09:48.483Z,18.05
2019-01-27T07:10:57.575Z,18.02
2019-01-27T07:12:06.667Z,18.05
2019-01-27T07:13:15.735Z,18.02
2019-01-27T07:14:25.264Z,18.05
2019-01-27T07:15:34.124Z,18.07
2019-01-27T07:16:42.951Z,18.02
2019-01-27T07:17:51.769Z,18.03
2019-01-27T07:19:00.628Z,18.07
2019-01-27T07:20:09.444Z,18.08
2019-01-27T07:21:18.267Z,18.02
2019-01-27T07:22:27.087Z,18.07
2019-01-27T07:23:35.964Z,18.07
2019-01-27T07:24:44.877Z,18.03
2019-01-27T07:25:54.763Z,18
2019-01-27T07:27:03.835Z,18.11
2019-01-27T07:28:12.913Z,18.1
2019-01-27T07:29:21.995Z,18.05
2019-01-27T07:30:30.817Z,18.08
2019-01-27T07:31:40.415Z,18.05
2019-01-27T07:32:49.485Z,18.11
2019-01-27T07:33:58.848Z,18.12
2019-01-27T07:35:07.667Z,18.1
2019-01-27T07:36:16.781Z,18.08
2019-01-27T07:37:25.873Z,18.1
2019-01-27T07:38:34.738Z,18.08
2019-01-27T07:39:43.554Z,18.12
2019-01-27T07:40:52.634Z,18.03
2019-01-27T07:42:01.817Z,18.1
2019-01-27T07:43:10.889Z,18.1
2019-01-27T07:44:20.247Z,18.08
2019-01-27T07:45:29.333Z,18.05
2019-01-27T07:46:38.416Z,18.08
2019-01-27T07:47:47.485Z,18.11
2019-01-27T07:48:56.309Z,18.11
2019-01-27T07:50:05.958Z,18.05
2019-01-27T07:51:14.779Z,18.05
2019-01-27T07:52:23.591Z,18.07
2019-01-27T07:53:32.762Z,18.08
2019-01-27T07:54:41.584Z,18.03
2019-01-27T07:55:50.397Z,18.08
2019-01-27T07:56:59.477Z,18.03
2019-01-27T07:58:08.339Z,18.05
2019-01-27T07:59:17.208Z,18.07
2019-01-27T08:00:26.279Z,18.05
2019-01-27T08:01:35.390Z,18.08
2019-01-27T08:02:44.460Z,18.05
2019-01-27T08:03:53.261Z,18.08
2019-01-27T08:05:02.516Z,18.08
2019-01-27T08:06:11.589Z,18.1
2019-01-27T08:07:20.416Z,18.12
2019-01-27T08:08:29.250Z,18.12
2019-01-27T08:09:38.610Z,18.05
2019-01-27T08:10:47.435Z,18.1
2019-01-27T08:11:56.530Z,18.1
2019-01-27T08:13:05.612Z,18.11
2019-01-27T08:14:14.503Z,18.08
2019-01-27T08:15:23.342Z,18.05
2019-01-27T08:16:32.416Z,18.1
2019-01-27T08:17:41.506Z,18.03
2019-01-27T08:18:50.575Z,18.08
2019-01-27T08:19:59.690Z,18.1
2019-01-27T08:21:09.094Z,18.1
2019-01-27T08:22:18.546Z,18.02
2019-01-27T08:23:28.163Z,18.03
2019-01-27T08:24:37.016Z,18.1
2019-01-27T08:25:45.825Z,18.11
2019-01-27T08:26:54.896Z,18.17
2019-01-27T08:28:03.701Z,18.1
2019-01-27T08:29:12.530Z,18.1
2019-01-27T08:30:21.406Z,18.08
2019-01-27T08:31:30.215Z,18.11
2019-01-27T08:32:39.065Z,18.1
2019-01-27T08:33:47.999Z,18.14
2019-01-27T08:34:57.069Z,18.2
2019-01-27T08:36:06.159Z,18.21
2019-01-27T08:37:16.965Z,18.2
2019-01-27T08:38:26.060Z,18.2
2019-01-27T08:39:34.962Z,18.18
2019-01-27T08:40:43.807Z,18.2
2019-01-27T08:41:52.660Z,18.17
2019-01-27T08:43:01.483Z,18.05
2019-01-27T08:44:10.293Z,18.08
2019-01-27T08:45:19.421Z,18.14
2019-01-27T08:46:28.507Z,18.18
2019-01-27T08:47:37.597Z,18.2
2019-01-27T08:48:46.974Z,18.17
2019-01-27T08:49:56.618Z,18.15
2019-01-27T08:51:05.804Z,18.23
2019-01-27T08:52:14.619Z,18.26
2019-01-27T08:53:23.959Z,18.23
2019-01-27T08:54:32.771Z,18.29
2019-01-27T08:55:42.717Z,18.2
2019-01-27T08:56:51.930Z,18.23
2019-01-27T08:58:01.014Z,18.23
2019-01-27T08:59:09.845Z,18.23
2019-01-27T09:00:18.920Z,18.27
2019-01-27T09:01:27.733Z,18.21
2019-01-27T09:02:36.580Z,18.2
2019-01-27T09:03:45.395Z,18.2
2019-01-27T09:04:54.219Z,18.2
2019-01-27T09:06:03.334Z,18.17
2019-01-27T09:07:12.134Z,18.2
2019-01-27T09:08:21.072Z,18.23
2019-01-27T09:09:29.871Z,18.23
2019-01-27T09:10:38.702Z,18.23
2019-01-27T09:11:47.805Z,18.23
2019-01-27T09:12:57.153Z,18.2
2019-01-27T09:14:06.561Z,18.2
2019-01-27T09:15:15.364Z,18.18
2019-01-27T09:16:24.191Z,18.21
2019-01-27T09:17:32.998Z,18.18
2019-01-27T09:18:41.818Z,18.2
2019-01-27T09:19:50.646Z,18.2
2019-01-27T09:20:59.731Z,18.21
2019-01-27T09:22:08.554Z,18.2
2019-01-27T09:23:17.903Z,18.18
2019-01-27T09:24:26.994Z,18.2
2019-01-27T09:25:36.195Z,18.23
2019-01-27T09:26:45.544Z,18.12
2019-01-27T09:27:54.910Z,18.1
2019-01-27T09:29:03.774Z,18.07
2019-01-27T09:30:13.154Z,18.07
2019-01-27T09:31:22.259Z,18.08
2019-01-27T09:32:31.056Z,18.08
2019-01-27T09:33:40.675Z,18.18
2019-01-27T09:34:49.480Z,18.11
2019-01-27T09:35:58.579Z,18.2
2019-01-27T09:37:07.752Z,18.17
2019-01-27T09:38:17.392Z,18.18
2019-01-27T09:39:26.751Z,18.18
2019-01-27T09:40:35.844Z,18.23
2019-01-27T09:41:44.912Z,18.2
2019-01-27T09:42:53.877Z,18.25
2019-01-27T09:44:03.233Z,18.23
2019-01-27T09:45:12.321Z,18.14
2019-01-27T09:46:21.140Z,18.2
2019-01-27T09:47:29.953Z,18.12
2019-01-27T09:48:38.864Z,18.12
2019-01-27T09:49:47.712Z,18.11
2019-01-27T09:50:56.805Z,18.07
2019-01-27T09:52:05.622Z,18.12
2019-01-27T09:53:14.450Z,18.14
2019-01-27T09:54:23.629Z,18.21
2019-01-27T09:55:32.724Z,18.2
2019-01-27T09:56:42.062Z,18.15
2019-01-27T09:57:52.323Z,18.21
2019-01-27T09:59:02.524Z,18.29
2019-01-27T10:00:11.742Z,18.23
2019-01-27T10:01:21.109Z,18.25
2019-01-27T10:02:36.970Z,18.2
2019-01-27T10:03:46.318Z,18.2
2019-01-27T10:04:55.924Z,18.2
2019-01-27T10:06:04.751Z,18.26
2019-01-27T10:07:13.823Z,18.27
2019-01-27T10:08:22.902Z,18.23
2019-01-27T10:09:32.229Z,18.23
2019-01-27T10:10:41.572Z,18.23
2019-01-27T10:11:50.705Z,18.21
2019-01-27T10:12:59.804Z,18.3
2019-01-27T10:14:08.639Z,18.2
2019-01-27T10:15:18.395Z,18.26
2019-01-27T10:16:27.797Z,18.25
2019-01-27T10:17:36.868Z,18.23
2019-01-27T10:18:45.685Z,18.07
2019-01-27T10:19:54.521Z,18
2019-01-27T10:21:03.355Z,18.05
2019-01-27T10:22:12.424Z,17.95
2019-01-27T10:23:21.565Z,17.97
2019-01-27T10:24:30.380Z,18
2019-01-27T10:25:39.433Z,18.1
2019-01-27T10:26:48.680Z,18.02
2019-01-27T10:27:57.751Z,18.11
2019-01-27T10:29:06.970Z,18.11
2019-01-27T10:30:17.322Z,18.11
2019-01-27T10:31:26.473Z,18.17
2019-01-27T10:32:35.567Z,18.08
2019-01-27T10:33:44.642Z,18.12
2019-01-27T10:34:53.437Z,18.12
2019-01-27T10:36:02.267Z,18.17
2019-01-27T10:37:16.525Z,18.14
2019-01-27T10:38:25.350Z,18.15
2019-01-27T10:39:34.173Z,18.2
2019-01-27T10:40:44.298Z,18.17
2019-01-27T10:41:53.799Z,18.18
2019-01-27T10:43:03.103Z,18.25
2019-01-27T10:44:12.030Z,18.2
2019-01-27T10:45:21.353Z,18.21
2019-01-27T10:46:31.143Z,18.2
2019-01-27T10:47:39.988Z,18.14
2019-01-27T10:48:49.079Z,18.2
2019-01-27T10:49:58.351Z,18.2
2019-01-27T10:51:07.774Z,18.15
2019-01-27T10:52:17.695Z,18.17
2019-01-27T10:53:34.543Z,18.14
2019-01-27T10:54:43.686Z,18.14
2019-01-27T10:55:53.141Z,18.12
2019-01-27T10:57:02.510Z,18.12
2019-01-27T10:58:12.116Z,18.12
2019-01-27T10:59:21.303Z,18.15
2019-01-27T11:00:30.131Z,18.23
2019-01-27T11:01:39.298Z,18.21
2019-01-27T11:02:48.883Z,18.18
2019-01-27T11:03:59.047Z,18.18
2019-01-27T11:05:08.134Z,18.2
2019-01-27T11:06:17.234Z,18.18
2019-01-27T11:07:26.300Z,18.21
2019-01-27T11:08:35.118Z,18.21
2019-01-27T11:09:44.050Z,18.17
2019-01-27T11:10:53.152Z,18.2
2019-01-27T11:12:02.232Z,18.23
2019-01-27T11:13:11.300Z,18.17
2019-01-27T11:14:20.357Z,18.23
2019-01-27T11:15:29.484Z,18.14
2019-01-27T11:16:40.664Z,18.23
2019-01-27T11:17:49.487Z,18.21
2019-01-27T11:18:58.643Z,18.15
2019-01-27T11:20:08.044Z,18.18
2019-01-27T11:21:17.507Z,18.15
2019-01-27T11:22:26.611Z,18.21
2019-01-27T11:23:35.706Z,18.08
2019-01-27T11:24:44.785Z,18.17
2019-01-27T11:25:59.706Z,18.14
2019-01-27T11:27:09.591Z,18.1
2019-01-27T11:28:18.692Z,18.05
2019-01-27T11:29:27.539Z,18.1
2019-01-27T11:30:36.352Z,18.07
2019-01-27T11:31:45.457Z,18
2019-01-27T11:32:54.293Z,18.03
2019-01-27T11:34:03.511Z,18.1
2019-01-27T11:35:15.517Z,18.14
2019-01-27T11:36:26.971Z,18.14
2019-01-27T11:37:38.778Z,18.11
2019-01-27T11:38:50.216Z,18.21
2019-01-27T11:40:02.017Z,18.15
2019-01-27T11:41:13.883Z,18.11
2019-01-27T11:42:25.702Z,18.17
2019-01-27T11:43:37.307Z,18.18
2019-01-27T11:44:48.934Z,18.2
2019-01-27T11:46:00.642Z,18.23
2019-01-27T11:47:12.320Z,18.2
2019-01-27T11:48:24.305Z,18.15
2019-01-27T11:49:36.546Z,18.12
2019-01-27T11:50:47.631Z,18.27
2019-01-27T11:51:56.570Z,18.2
2019-01-27T11:53:05.590Z,18.18
2019-01-27T11:54:14.983Z,18.21
2019-01-27T11:55:24.627Z,18.21
2019-01-27T11:56:33.677Z,18.21
2019-01-27T11:57:42.826Z,18.18
2019-01-27T11:58:51.733Z,18.17
2019-01-27T12:00:00.882Z,18.21
2019-01-27T12:01:10.035Z,18.18
2019-01-27T12:02:19.330Z,18.21
2019-01-27T12:03:28.136Z,18.21
2019-01-27T12:04:37.344Z,18.2
2019-01-27T12:05:46.567Z,18.18
2019-01-27T12:06:55.687Z,18.21
2019-01-27T12:08:04.841Z,18.2
2019-01-27T12:09:14.043Z,18.15
2019-01-27T12:10:22.878Z,18.18
2019-01-27T12:11:32.164Z,18.18
2019-01-27T12:12:41.320Z,18.17
2019-01-27T12:13:50.368Z,18.18
2019-01-27T12:14:59.777Z,18.17
2019-01-27T12:16:09.219Z,18.21
2019-01-27T12:17:18.102Z,18.15
2019-01-27T12:18:26.919Z,18.21
2019-01-27T12:19:40.177Z,18.26
2019-01-27T12:20:49.266Z,18.2
2019-01-27T12:21:58.079Z,18.18
2019-01-27T12:23:07.178Z,18.18
2019-01-27T12:24:16.952Z,18.2
2019-01-27T12:25:26.543Z,18.15
2019-01-27T12:26:35.784Z,18.2
2019-01-27T12:27:44.683Z,18.2
2019-01-27T12:28:53.678Z,18.2
2019-01-27T12:30:02.578Z,18.27
2019-01-27T12:31:11.461Z,18.17
2019-01-27T12:32:20.287Z,18.21
2019-01-27T12:33:29.118Z,18.17
2019-01-27T12:34:38.187Z,18.23
2019-01-27T12:35:47.019Z,18.25
2019-01-27T12:36:56.193Z,18.27
2019-01-27T12:38:05.292Z,18.21
2019-01-27T12:39:14.673Z,18.26
2019-01-27T12:40:24.337Z,18.21
2019-01-27T12:41:33.145Z,18.17
2019-01-27T12:42:42.024Z,18.21
2019-01-27T12:43:51.147Z,18.23
2019-01-27T12:45:00.241Z,18.23
2019-01-27T12:46:09.335Z,18.21
2019-01-27T12:47:18.445Z,18.15
2019-01-27T12:48:27.570Z,18.23
2019-01-27T12:49:36.642Z,18.18
2019-01-27T12:50:45.474Z,18.23
2019-01-27T12:51:54.578Z,18.27
2019-01-27T12:53:03.392Z,18.21
2019-01-27T12:54:13.059Z,18.29
2019-01-27T12:55:22.126Z,18.33
2019-01-27T12:56:30.973Z,18.3
2019-01-27T12:57:40.052Z,18.35
2019-01-27T12:58:49.404Z,18.35
2019-01-27T12:59:58.255Z,18.33
2019-01-27T13:01:07.361Z,18.33
2019-01-27T13:02:16.173Z,18.39
2019-01-27T13:03:25.949Z,18.35
2019-01-27T13:04:35.287Z,18.37
2019-01-27T13:05:44.145Z,18.33
2019-01-27T13:06:53.249Z,18.41
2019-01-27T13:08:03.116Z,18.37
2019-01-27T13:09:12.753Z,18.3
2019-01-27T13:10:21.867Z,18.32
2019-01-27T13:11:31.002Z,18.37
2019-01-27T13:12:39.807Z,18.41
2019-01-27T13:13:48.894Z,18.44
2019-01-27T13:14:57.772Z,18.35
2019-01-27T13:16:06.924Z,18.35
2019-01-27T13:17:15.778Z,18.44
2019-01-27T13:18:25.129Z,18.36
2019-01-27T13:19:34.780Z,18.41
2019-01-27T13:20:43.868Z,18.45
2019-01-27T13:21:52.970Z,18.48
2019-01-27T13:23:02.413Z,18.52
2019-01-27T13:24:11.766Z,18.44
2019-01-27T13:25:20.843Z,18.52
2019-01-27T13:26:29.926Z,18.45
2019-01-27T13:27:39.288Z,18.55
2019-01-27T13:28:48.227Z,18.52
2019-01-27T13:29:57.083Z,18.55
2019-01-27T13:31:05.936Z,18.65
2019-01-27T13:32:14.782Z,18.52
2019-01-27T13:33:23.668Z,18.52
2019-01-27T13:34:32.601Z,18.57
2019-01-27T13:35:43.336Z,18.65
2019-01-27T13:36:52.160Z,18.58
2019-01-27T13:38:00.962Z,18.55
2019-01-27T13:39:10.082Z,18.58
2019-01-27T13:40:19.460Z,18.55
2019-01-27T13:41:28.728Z,18.57
2019-01-27T13:42:37.539Z,18.66
2019-01-27T13:43:46.749Z,18.58
2019-01-27T13:44:55.620Z,18.58
2019-01-27T13:46:04.877Z,18.63
2019-01-27T13:47:13.696Z,18.66
2019-01-27T13:48:22.794Z,18.57
2019-01-27T13:49:31.611Z,18.6
2019-01-27T13:50:40.517Z,18.66
2019-01-27T13:51:49.720Z,18.57
2019-01-27T13:52:58.817Z,18.66
2019-01-27T13:54:08.553Z,18.58
2019-01-27T13:55:17.350Z,18.52
2019-01-27T13:56:26.704Z,18.58
2019-01-27T13:57:35.913Z,18.57
2019-01-27T13:58:44.883Z,18.52
2019-01-27T13:59:54.212Z,18.58
2019-01-27T14:01:03.507Z,18.57
2019-01-27T14:02:12.878Z,18.6
2019-01-27T14:03:22.022Z,18.57
2019-01-27T14:04:31.083Z,18.62
2019-01-27T14:05:40.174Z,18.67
2019-01-27T14:06:49.281Z,18.62
2019-01-27T14:07:58.193Z,18.66
2019-01-27T14:09:07.109Z,18.8
2019-01-27T14:10:17.058Z,18.72
2019-01-27T14:11:27.029Z,18.73
2019-01-27T14:12:36.817Z,18.73
2019-01-27T14:13:45.639Z,18.78
2019-01-27T14:14:55.391Z,18.85
2019-01-27T14:16:04.588Z,18.75
2019-01-27T14:17:13.950Z,18.8
2019-01-27T14:18:23.283Z,18.84
2019-01-27T14:19:32.425Z,18.8
2019-01-27T14:20:41.462Z,18.81
2019-01-27T14:21:50.273Z,18.88
2019-01-27T14:22:59.194Z,18.84
2019-01-27T14:24:08.300Z,18.82
2019-01-27T14:25:17.402Z,18.82
2019-01-27T14:26:26.423Z,18.81
2019-01-27T14:27:35.503Z,18.82
2019-01-27T14:28:44.476Z,18.82
2019-01-27T14:29:53.291Z,18.82
2019-01-27T14:31:02.111Z,18.82
2019-01-27T14:32:11.565Z,18.8
2019-01-27T14:33:20.415Z,18.8
2019-01-27T14:34:29.263Z,18.85
2019-01-27T14:35:38.357Z,18.76
2019-01-27T14:36:47.477Z,18.82
2019-01-27T14:37:56.398Z,18.8
2019-01-27T14:39:05.468Z,18.9
2019-01-27T14:40:14.555Z,18.91
2019-01-27T14:41:23.635Z,18.88
2019-01-27T14:42:32.460Z,18.78
2019-01-27T14:43:41.543Z,18.67
2019-01-27T14:44:50.361Z,18.6
2019-01-27T14:45:59.179Z,18.5
2019-01-27T14:47:08.275Z,18.54
2019-01-27T14:48:17.378Z,18.52
2019-01-27T14:49:26.311Z,18.57
2019-01-27T14:50:35.400Z,18.57
2019-01-27T14:51:44.760Z,18.63
2019-01-27T14:52:53.614Z,18.66
2019-01-27T14:54:02.441Z,18.73
2019-01-27T14:55:11.314Z,18.75
2019-01-27T14:56:20.422Z,18.75
2019-01-27T14:57:29.767Z,18.72